Time;durP1;ratioP1;P1;durP2;ratioP2;P2;SDS_P1;SDS_P2;PMS_P1;PMS_P2;Temp;Humidity;BMP_temperature;BMP_pressure;BME280_temperature;BME280_humidity;BME280_pressure;Samples;Min_cycle;Max_cycle;Signal;HPM_P1;HPM_P2
2023/03/16 00:02:09;;;;;;;;;;;;;;;;;;5026754;28;19921;-77
2023/03/16 00:04:36;;;;;;;;;;;;;;;;;;5027410;28;19940;-76
2023/03/16 00:07:01;;;;;;;;;;;;;;;;;;5046512;28;19917;-77
2023/03/16 00:09:29;;;;;;;;;;;;;;;;;;5027597;28;19979;-80
2023/03/16 00:11:55;;;;;;;;;;;;;;;;;;5028397;28;19914;-79
2023/03/16 00:14:21;;;;;;;;;;;;;;;;;;5008403;23;19988;-78
2023/03/16 00:16:47;;;;;;;;;;;;;;;;;;4960696;28;19915;-76
2023/03/16 00:19:12;;;;;;;;;;;;;;;;;;4960708;28;19950;-76
2023/03/16 00:21:38;;;;;;;;;;;;;;;;;;4977398;28;19922;-76
2023/03/16 00:24:03;;;;;;;;;;;;;;;;;;4959963;28;19918;-75
2023/03/16 00:26:28;;;;;;;;;;;;;;;;;;4928312;28;20461;-75
2023/03/16 00:28:54;;;;;;;;;;;;;;;;;;4977193;28;19985;-76
2023/03/16 00:31:19;;;;;;;;;;;;;;;;;;4977444;28;20333;-75
2023/03/16 00:33:45;;;;;;;;;;;;;;;;;;4977375;28;19921;-76
2023/03/16 00:36:10;;;;;;;;;;;;;;;;;;4958431;28;19914;-76
2023/03/16 00:38:35;;;;;;;;;;;;;;;;;;4977265;28;19914;-76
2023/03/16 00:41:04;;;;;;;;;;;;;;;;;;4960904;28;19914;-76
2023/03/16 00:43:30;;;;;;;;;;;;;;;;;;4987193;28;19914;-76
2023/03/16 00:45:55;;;;;;;;;;;;;;;;;;4995683;28;19991;-75
2023/03/16 00:48:23;;;;;;;;;;;;;;;;;;4995953;28;19977;-76
2023/03/16 00:50:48;;;;;;;;;;;;;;;;;;4979563;28;19938;-76
2023/03/16 00:53:14;;;;;;;;;;;;;;;;;;4997016;28;19938;-76
2023/03/16 00:55:40;;;;;;;;;;;;;;;;;;4997037;28;19957;-76
2023/03/16 00:58:05;;;;;;;;;;;;;;;;;;4978451;28;19918;-75
2023/03/16 01:00:31;;;;;;;;;;;;;;;;;;4977916;28;19914;-76
2023/03/16 01:02:56;;;;;;;;;;;;;;;;;;4971857;28;19945;-76
2023/03/16 01:05:22;;;;;;;;;;;;;;;;;;4960070;28;19914;-76
2023/03/16 01:07:47;;;;;;;;;;;;;;;;;;4976050;28;19918;-76
2023/03/16 01:10:12;;;;;;;;;;;;;;;;;;4975592;28;19950;-76
2023/03/16 01:12:38;;;;;;;;;;;;;;;;;;4958302;28;19914;-76
2023/03/16 01:15:04;;;;;;;;;;;;;;;;;;4957421;28;19918;-76
2023/03/16 01:17:33;;;;;;;;;;;;;;;;;;4974655;28;20338;-76
2023/03/16 01:19:59;;;;;;;;;;;;;;;;;;4974557;28;19914;-77
2023/03/16 01:22:25;;;;;;;;;;;;;;;;;;4957569;28;19965;-76
2023/03/16 01:24:50;;;;;;;;;;;;;;;;;;4974717;28;19914;-75
2023/03/16 01:27:16;;;;;;;;;;;;;;;;;;4957179;28;20018;-77
2023/03/16 01:29:42;;;;;;;;;;;;;;;;;;4957459;28;20329;-76
2023/03/16 01:32:09;;;;;;;;;;;;;;;;;;4941374;28;20048;-76
2023/03/16 01:34:34;;;;;;;;;;;;;;;;;;4941261;28;19945;-76
2023/03/16 01:36:59;;;;;;;;;;;;;;;;;;4956841;28;19953;-76
2023/03/16 01:39:47;;;;;;;;;;;;;;;;;;4941080;28;20412;-76
2023/03/16 01:42:13;;;;;;;;;;;;;;;;;;4956567;28;19950;-76
2023/03/16 01:44:38;;;;;;;;;;;;;;;;;;4940718;28;20016;-76
2023/03/16 01:47:04;;;;;;;;;;;;;;;;;;4956539;28;20393;-76
2023/03/16 01:49:31;;;;;;;;;;;;;;;;;;4956713;28;19914;-77
2023/03/16 01:51:56;;;;;;;;;;;;;;;;;;4956724;28;19921;-76
2023/03/16 01:54:23;;;;;;;;;;;;;;;;;;4956532;28;20374;-76
2023/03/16 01:56:50;;;;;;;;;;;;;;;;;;4973617;28;19922;-76
2023/03/16 01:59:15;;;;;;;;;;;;;;;;;;4973723;28;19911;-76
2023/03/16 02:01:41;;;;;;;;;;;;;;;;;;4956619;28;19914;-75
2023/03/16 02:04:06;;;;;;;;;;;;;;;;;;4956607;28;20016;-76
2023/03/16 02:06:32;;;;;;;;;;;;;;;;;;4940559;28;19918;-76
2023/03/16 02:08:57;;;;;;;;;;;;;;;;;;4956668;28;19915;-76
2023/03/16 02:11:22;;;;;;;;;;;;;;;;;;4941167;28;19922;-76
2023/03/16 02:14:14;;;;;;;;;;;;;;;;;;4969431;28;19930;-76
2023/03/16 02:16:41;;;;;;;;;;;;;;;;;;4958886;28;20056;-76
2023/03/16 02:19:06;;;;;;;;;;;;;;;;;;4960833;28;20401;-76
2023/03/16 02:21:32;;;;;;;;;;;;;;;;;;4960715;28;19914;-75
2023/03/16 02:23:57;;;;;;;;;;;;;;;;;;4944820;28;19914;-75
2023/03/16 02:26:23;;;;;;;;;;;;;;;;;;4960305;28;19918;-76
2023/03/16 02:28:48;;;;;;;;;;;;;;;;;;4960604;28;20370;-76
2023/03/16 02:31:13;;;;;;;;;;;;;;;;;;4960134;28;19921;-76
2023/03/16 02:33:39;;;;;;;;;;;;;;;;;;4960279;28;19914;-76
2023/03/16 02:36:06;;;;;;;;;;;;;;;;;;4960204;28;19914;-76
2023/03/16 02:38:32;;;;;;;;;;;;;;;;;;4978128;28;19918;-76
2023/03/16 02:40:57;;;;;;;;;;;;;;;;;;4961226;28;19914;-76
2023/03/16 02:43:22;;;;;;;;;;;;;;;;;;4945288;28;20413;-76
2023/03/16 02:46:02;;;;;;;;;;;;;;;;;;4946088;28;19914;-76
2023/03/16 02:48:27;;;;;;;;;;;;;;;;;;4946894;28;20425;-76
2023/03/16 02:50:52;;;;;;;;;;;;;;;;;;4980359;28;19940;-76
2023/03/16 02:53:18;;;;;;;;;;;;;;;;;;4980151;28;19921;-76
2023/03/16 02:55:44;;;;;;;;;;;;;;;;;;4962024;28;20021;-76
2023/03/16 02:58:10;;;;;;;;;;;;;;;;;;4963573;28;20009;-77
2023/03/16 03:00:35;;;;;;;;;;;;;;;;;;4947549;28;20349;-76
2023/03/16 03:03:01;;;;;;;;;;;;;;;;;;4979527;28;19914;-76
2023/03/16 03:05:26;;;;;;;;;;;;;;;;;;4979467;28;20440;-75
2023/03/16 03:07:52;;;;;;;;;;;;;;;;;;4961680;28;20003;-76
2023/03/16 03:10:18;;;;;;;;;;;;;;;;;;4961849;28;19910;-75
2023/03/16 03:12:48;;;;;;;;;;;;;;;;;;4978886;28;19969;-76
2023/03/16 03:15:13;;;;;;;;;;;;;;;;;;4961218;28;19929;-75
2023/03/16 03:17:55;;;;;;;;;;;;;;;;;;4945771;28;20009;-75
2023/03/16 03:20:20;;;;;;;;;;;;;;;;;;4978412;28;19949;-75
2023/03/16 03:22:46;;;;;;;;;;;;;;;;;;4949082;28;19921;-75
2023/03/16 03:25:12;;;;;;;;;;;;;;;;;;4983315;28;19914;-76
2023/03/16 03:27:38;;;;;;;;;;;;;;;;;;4981696;28;19969;-76
2023/03/16 03:30:06;;;;;;;;;;;;;;;;;;4963588;28;19945;-76
2023/03/16 03:32:32;;;;;;;;;;;;;;;;;;4978536;28;19921;-76
2023/03/16 03:34:57;;;;;;;;;;;;;;;;;;4958911;28;20001;-76
2023/03/16 03:37:24;;;;;;;;;;;;;;;;;;4953665;28;19921;-75
2023/03/16 03:39:49;;;;;;;;;;;;;;;;;;4975954;28;20293;-76
2023/03/16 03:42:15;;;;;;;;;;;;;;;;;;4977407;28;19914;-76
2023/03/16 03:44:41;;;;;;;;;;;;;;;;;;4944374;28;19922;-76
2023/03/16 03:47:06;;;;;;;;;;;;;;;;;;4959311;28;19918;-76
2023/03/16 03:49:32;;;;;;;;;;;;;;;;;;4976333;28;19914;-76
2023/03/16 03:51:58;;;;;;;;;;;;;;;;;;4975071;28;19920;-77
2023/03/16 03:54:25;;;;;;;;;;;;;;;;;;4958160;28;19914;-77
2023/03/16 03:56:59;;;;;;;;;;;;;;;;;;4956870;29;19915;-77
2023/03/16 03:59:25;;;;;;;;;;;;;;;;;;4924248;29;19926;-76
2023/03/16 04:02:18;;;;;;;;;;;;;;;;;;4940184;29;19911;-76
2023/03/16 04:04:48;;;;;;;;;;;;;;;;;;4956622;28;19918;-76
2023/03/16 04:07:14;;;;;;;;;;;;;;;;;;4939419;29;19925;-76
2023/03/16 04:09:41;;;;;;;;;;;;;;;;;;4924714;29;19917;-76
2023/03/16 04:12:09;;;;;;;;;;;;;;;;;;4939987;29;19921;-76
2023/03/16 04:14:34;;;;;;;;;;;;;;;;;;4957015;28;20290;-76
2023/03/16 04:17:03;;;;;;;;;;;;;;;;;;4923855;29;19953;-76
2023/03/16 04:19:28;;;;;;;;;;;;;;;;;;4940268;29;19969;-76
2023/03/16 04:21:54;;;;;;;;;;;;;;;;;;4940962;29;19998;-76
2023/03/16 04:24:21;;;;;;;;;;;;;;;;;;4944479;29;19965;-76
2023/03/16 04:26:46;;;;;;;;;;;;;;;;;;4961173;29;19921;-77
2023/03/16 04:29:13;;;;;;;;;;;;;;;;;;4963667;28;19914;-77
2023/03/16 04:31:39;;;;;;;;;;;;;;;;;;4956202;28;19998;-76
2023/03/16 04:34:04;;;;;;;;;;;;;;;;;;4981737;28;19915;-77
2023/03/16 04:36:31;;;;;;;;;;;;;;;;;;4976488;28;19914;-76
2023/03/16 04:38:57;;;;;;;;;;;;;;;;;;4976458;28;19914;-78
2023/03/16 04:41:23;;;;;;;;;;;;;;;;;;4979185;28;19967;-77
2023/03/16 04:43:56;;;;;;;;;;;;;;;;;;4987524;28;19914;-76
2023/03/16 04:46:23;;;;;;;;;;;;;;;;;;4993401;28;19921;-76
2023/03/16 04:48:48;;;;;;;;;;;;;;;;;;4970086;28;19924;-76
2023/03/16 04:51:14;;;;;;;;;;;;;;;;;;4979849;28;19920;-76
2023/03/16 04:53:45;;;;;;;;;;;;;;;;;;4945310;28;20342;-76
2023/03/16 04:56:18;;;;;;;;;;;;;;;;;;4944640;28;19957;-75
2023/03/16 04:58:47;;;;;;;;;;;;;;;;;;4959738;28;19914;-77
2023/03/16 05:01:12;;;;;;;;;;;;;;;;;;4961276;28;19910;-76
2023/03/16 05:03:38;;;;;;;;;;;;;;;;;;4947098;28;19914;-76
2023/03/16 05:06:04;;;;;;;;;;;;;;;;;;4963929;28;20270;-76
2023/03/16 05:08:31;;;;;;;;;;;;;;;;;;4947109;28;20005;-76
2023/03/16 05:10:56;;;;;;;;;;;;;;;;;;4980827;28;19968;-76
2023/03/16 05:13:22;;;;;;;;;;;;;;;;;;4981391;28;19914;-76
2023/03/16 05:15:49;;;;;;;;;;;;;;;;;;4945149;28;19918;-76
2023/03/16 05:18:20;;;;;;;;;;;;;;;;;;4961292;28;20026;-76
2023/03/16 05:20:45;;;;;;;;;;;;;;;;;;4960526;28;19914;-76
2023/03/16 05:23:11;;;;;;;;;;;;;;;;;;4959325;28;20305;-76
2023/03/16 05:25:44;;;;;;;;;;;;;;;;;;4976537;28;20400;-76
2023/03/16 05:28:09;;;;;;;;;;;;;;;;;;4927672;28;19918;-76
2023/03/16 05:30:46;;;;;;;;;;;;;;;;;;4959882;28;20408;-76
2023/03/16 05:33:16;;;;;;;;;;;;;;;;;;4951274;28;19914;-76
2023/03/16 05:35:42;;;;;;;;;;;;;;;;;;4962400;28;19945;-76
2023/03/16 05:38:10;;;;;;;;;;;;;;;;;;4977947;28;19914;-77
2023/03/16 05:40:38;;;;;;;;;;;;;;;;;;4962473;28;19914;-76
2023/03/16 05:43:12;;;;;;;;;;;;;;;;;;4980199;28;19921;-76
2023/03/16 05:45:43;;;;;;;;;;;;;;;;;;4996584;28;19949;-76
2023/03/16 05:48:12;;;;;;;;;;;;;;;;;;4981376;28;19918;-76
2023/03/16 05:50:43;;;;;;;;;;;;;;;;;;4970927;28;19921;-76
2023/03/16 05:53:08;;;;;;;;;;;;;;;;;;4965807;28;19914;-76
2023/03/16 05:55:35;;;;;;;;;;;;;;;;;;4967006;28;19921;-76
2023/03/16 05:58:03;;;;;;;;;;;;;;;;;;4965742;28;19984;-76
2023/03/16 06:00:28;;;;;;;;;;;;;;;;;;4983508;28;19914;-76
2023/03/16 06:03:05;;;;;;;;;;;;;;;;;;4963514;28;19938;-76
2023/03/16 06:05:33;;;;;;;;;;;;;;;;;;4959961;28;19929;-76
2023/03/16 06:07:59;;;;;;;;;;;;;;;;;;4941213;29;20083;-76
2023/03/16 06:10:25;;;;;;;;;;;;;;;;;;4925805;29;19946;-77
2023/03/16 06:12:51;;;;;;;;;;;;;;;;;;4926357;29;19918;-76
2023/03/16 06:15:18;;;;;;;;;;;;;;;;;;5004749;23;20000;-79
2023/03/16 06:17:44;;;;;;;;;;;;;;;;;;5000952;28;19913;-80
2023/03/16 06:20:11;;;;;;;;;;;;;;;;;;5000785;28;19963;-78
2023/03/16 06:22:38;;;;;;;;;;;;;;;;;;5017177;28;19949;-78
2023/03/16 06:25:04;;;;;;;;;;;;;;;;;;5013520;28;19913;-78
2023/03/16 06:27:30;;;;;;;;;;;;;;;;;;5017895;28;19928;-79
2023/03/16 06:30:09;;;;;;;;;;;;;;;;;;5004504;28;19914;-79
2023/03/16 06:32:36;;;;;;;;;;;;;;;;;;5029533;28;19914;-78
2023/03/16 06:35:03;;;;;;;;;;;;;;;;;;5012902;28;20020;-78
2023/03/16 06:37:30;;;;;;;;;;;;;;;;;;4995900;28;19924;-78
2023/03/16 06:39:56;;;;;;;;;;;;;;;;;;5012602;28;19913;-78
2023/03/16 06:42:22;;;;;;;;;;;;;;;;;;5014343;28;19952;-77
2023/03/16 06:44:48;;;;;;;;;;;;;;;;;;5012903;28;19917;-79
2023/03/16 06:47:14;;;;;;;;;;;;;;;;;;5030813;28;19985;-79
2023/03/16 06:49:40;;;;;;;;;;;;;;;;;;5014115;28;19924;-78
2023/03/16 06:52:13;;;;;;;;;;;;;;;;;;4994225;28;19914;-78
2023/03/16 06:54:39;;;;;;;;;;;;;;;;;;5010942;28;19918;-79
2023/03/16 06:57:05;;;;;;;;;;;;;;;;;;4992778;28;20272;-79
2023/03/16 06:59:31;;;;;;;;;;;;;;;;;;4994821;28;19929;-79
2023/03/16 07:01:56;;;;;;;;;;;;;;;;;;5010034;28;19921;-77
2023/03/16 07:04:22;;;;;;;;;;;;;;;;;;4992793;28;19914;-79
2023/03/16 07:06:48;;;;;;;;;;;;;;;;;;4992527;28;19961;-80
2023/03/16 07:09:14;;;;;;;;;;;;;;;;;;4992134;28;19914;-77
2023/03/16 07:11:40;;;;;;;;;;;;;;;;;;4992289;28;20009;-78
2023/03/16 07:14:06;;;;;;;;;;;;;;;;;;4991203;28;19920;-78
2023/03/16 07:16:32;;;;;;;;;;;;;;;;;;5009460;28;19920;-78
2023/03/16 07:19:00;;;;;;;;;;;;;;;;;;4992844;28;19918;-80
2023/03/16 07:21:26;;;;;;;;;;;;;;;;;;5009845;28;20085;-77
2023/03/16 07:23:52;;;;;;;;;;;;;;;;;;4992672;28;19916;-78
2023/03/16 07:26:23;;;;;;;;;;;;;;;;;;4992799;28;19914;-78
2023/03/16 07:28:53;;;;;;;;;;;;;;;;;;5009440;28;19924;-79
2023/03/16 07:31:21;;;;;;;;;;;;;;;;;;4992624;28;19914;-78
2023/03/16 07:33:47;;;;;;;;;;;;;;;;;;5010953;28;20333;-78
2023/03/16 07:36:19;;;;;;;;;;;;;;;;;;5026565;28;20005;-78
2023/03/16 07:38:50;;;;;;;;;;;;;;;;;;5010151;28;19988;-78
2023/03/16 07:41:16;;;;;;;;;;;;;;;;;;5026957;28;20381;-78
2023/03/16 07:43:45;;;;;;;;;;;;;;;;;;4995933;28;20373;-79
2023/03/16 07:46:13;;;;;;;;;;;;;;;;;;5012515;28;19920;-79
2023/03/16 07:48:39;;;;;;;;;;;;;;;;;;5029046;28;19917;-77
2023/03/16 07:51:04;;;;;;;;;;;;;;;;;;5013432;28;19914;-78
2023/03/16 07:53:31;;;;;;;;;;;;;;;;;;5034555;28;19912;-82
2023/03/16 07:56:35;;;;;;;;;;;;;;;;;;5018395;28;19901;-83
2023/03/16 07:59:08;;;;;;;;;;;;;;;;;;5006708;28;19901;-84
2023/03/16 08:01:53;;;;;;;;;;;;;;;;;;5008652;28;19902;-83
2023/03/16 08:04:50;;;;;;;;;;;;;;;;;;5513030;23;19916;-83
2023/03/16 08:07:18;;;;;;;;;;;;;;;;;;5026280;28;19916;-83
2023/03/16 08:09:57;;;;;;;;;;;;;;;;;;5012096;28;19911;-83
2023/03/16 08:12:30;;;;;;;;;;;;;;;;;;5026573;28;19902;-84
2023/03/16 08:15:02;;;;;;;;;;;;;;;;;;5008261;28;19923;-83
2023/03/16 08:17:33;;;;;;;;;;;;;;;;;;5009583;28;19964;-81
2023/03/16 08:20:05;;;;;;;;;;;;;;;;;;5009152;28;19913;-82
2023/03/16 08:22:45;;;;;;;;;;;;;;;;;;5009797;28;19909;-84
2023/03/16 08:30:52;;;;;;;;;;;;;;;;;;5182513;22;19926;-84
2023/03/16 08:33:50;;;;;;;;;;;;;;;;;;5013813;28;19916;-84
2023/03/16 08:36:54;;;;;;;;;;;;;;;;;;5042165;28;19901;-82
2023/03/16 08:39:27;;;;;;;;;;;;;;;;;;5026933;28;19917;-83
2023/03/16 08:41:55;;;;;;;;;;;;;;;;;;5056026;28;20072;-82
2023/03/16 08:44:37;;;;;;;;;;;;;;;;;;5025383;28;19993;-80
2023/03/16 08:47:04;;;;;;;;;;;;;;;;;;5039562;28;19953;-80
2023/03/16 08:49:32;;;;;;;;;;;;;;;;;;5018811;28;20364;-81
2023/03/16 08:52:04;;;;;;;;;;;;;;;;;;5016607;28;19948;-82
2023/03/16 08:54:31;;;;;;;;;;;;;;;;;;5048824;28;19920;-82
2023/03/16 08:56:57;;;;;;;;;;;;;;;;;;5031914;28;19909;-82
2023/03/16 08:59:23;;;;;;;;;;;;;;;;;;5049478;28;19992;-81
2023/03/16 09:01:49;;;;;;;;;;;;;;;;;;5048322;28;19913;-82
2023/03/16 09:04:14;;;;;;;;;;;;;;;;;;5048666;28;20410;-82
2023/03/16 09:06:46;;;;;;;;;;;;;;;;;;5048988;28;19928;-82
2023/03/16 09:09:12;;;;;;;;;;;;;;;;;;5029968;28;19913;-81
2023/03/16 09:11:37;;;;;;;;;;;;;;;;;;5046033;28;19917;-80
2023/03/16 09:14:03;;;;;;;;;;;;;;;;;;5030039;28;19925;-80
2023/03/16 09:16:29;;;;;;;;;;;;;;;;;;5046169;28;19913;-81
2023/03/16 09:18:55;;;;;;;;;;;;;;;;;;5045069;28;19920;-80
2023/03/16 09:21:21;;;;;;;;;;;;;;;;;;5031361;28;20004;-81
2023/03/16 09:23:47;;;;;;;;;;;;;;;;;;5029357;28;20452;-81
2023/03/16 09:26:14;;;;;;;;;;;;;;;;;;5030971;28;19914;-80
2023/03/16 09:28:49;;;;;;;;;;;;;;;;;;5031881;28;20415;-81
2023/03/16 09:31:15;;;;;;;;;;;;;;;;;;5049040;28;19917;-82
2023/03/16 09:33:41;;;;;;;;;;;;;;;;;;5048826;28;19898;-81
2023/03/16 09:36:10;;;;;;;;;;;;;;;;;;5048535;28;20319;-81
2023/03/16 09:38:36;;;;;;;;;;;;;;;;;;5033180;28;19913;-82
2023/03/16 09:41:02;;;;;;;;;;;;;;;;;;5031716;28;19967;-81
2023/03/16 09:43:28;;;;;;;;;;;;;;;;;;5030730;28;19917;-80
2023/03/16 09:45:53;;;;;;;;;;;;;;;;;;5032205;28;19958;-81
2023/03/16 09:48:19;;;;;;;;;;;;;;;;;;5028444;28;20004;-81
2023/03/16 09:50:45;;;;;;;;;;;;;;;;;;5032185;28;19913;-84
2023/03/16 09:53:19;;;;;;;;;;;;;;;;;;5040074;28;19917;-83
2023/03/16 09:55:49;;;;;;;;;;;;;;;;;;5040770;28;19901;-83
2023/03/16 10:01:34;;;;;;;;;;;;;;;;;;;;;
2023/03/16 10:07:45;;;;;;;;;;;;;;;;;;5002068;28;20016;-83
2023/03/16 10:10:14;;;;;;;;;;;;;;;;;;5535394;22;19924;-83
2023/03/16 10:12:51;;;;;;;;;;;;;;;;;;4933972;28;19918;-84
2023/03/16 10:15:32;;;;;;;;;;;;;;;;;;4943553;28;19918;-84
2023/03/16 10:18:18;;;;;;;;;;;;;;;;;;4945417;28;19919;-85
2023/03/16 10:20:54;;;;;;;;;;;;;;;;;;4927536;28;19919;-85
2023/03/16 10:23:23;;;;;;;;;;;;;;;;;;4943663;29;19905;-84
2023/03/16 10:29:03;;;;;;;;;;;;;;;;;;5047859;22;19929;-84
2023/03/16 10:34:23;;;;;;;;;;;;;;;;;;4996703;28;19910;-85
2023/03/16 10:45:12;;;;;;;;;;;;;;;;;;5907024;23;19988;-84
2023/03/16 10:47:41;;;;;;;;;;;;;;;;;;4952717;28;19986;-84
2023/03/16 10:50:23;;;;;;;;;;;;;;;;;;4969173;28;19909;-85
2023/03/16 10:53:16;;;;;;;;;;;;;;;;;;;;;
2023/03/16 10:55:49;;;;;;;;;;;;;;;;;;4982510;28;19926;-83
2023/03/16 10:58:15;;;;;;;;;;;;;;;;;;4997140;28;19953;-83
2023/03/16 11:03:44;;;;;;;;;;;;;;;;;;4906116;29;19920;-85
2023/03/16 11:06:16;;;;;;;;;;;;;;;;;;4921960;29;19920;-86
2023/03/16 11:08:48;;;;;;;;;;;;;;;;;;4908422;29;19919;-85
2023/03/16 11:11:21;;;;;;;;;;;;;;;;;;4907514;29;19911;-84
2023/03/16 11:14:03;;;;;;;;;;;;;;;;;;5228449;23;19925;-84
2023/03/16 11:16:29;;;;;;;;;;;;;;;;;;5000008;28;19918;-85
2023/03/16 11:21:28;;;;;;;;;;;;;;;;;;5316979;23;19937;-85
2023/03/16 11:23:55;;;;;;;;;;;;;;;;;;4928478;29;19950;-86
2023/03/16 11:26:32;;;;;;;;;;;;;;;;;;4929958;29;19923;-85
2023/03/16 11:31:41;;;;;;;;;;;;;;;;;;5595075;23;19926;-85
2023/03/16 11:34:12;;;;;;;;;;;;;;;;;;4950697;28;19985;-83
2023/03/16 11:36:43;;;;;;;;;;;;;;;;;;4951843;28;19898;-83
2023/03/16 11:39:27;;;;;;;;;;;;;;;;;;4970112;28;19918;-84
2023/03/16 11:42:09;;;;;;;;;;;;;;;;;;5696656;23;19958;-85
2023/03/16 11:47:16;;;;;;;;;;;;;;;;;;5409061;23;19914;-84
2023/03/16 11:55:16;;;;;;;;;;;;;;;;;;5719795;23;20248;-85
2023/03/16 11:57:50;;;;;;;;;;;;;;;;;;4966776;28;19922;-85
2023/03/16 12:00:24;;;;;;;;;;;;;;;;;;4952837;28;19910;-85
2023/03/16 12:08:16;;;;;;;;;;;;;;;;;;5520871;23;20401;-84
2023/03/16 12:13:31;;;;;;;;;;;;;;;;;;5321357;23;19969;-85
2023/03/16 12:16:33;;;;;;;;;;;;;;;;;;4962643;29;19926;-80
2023/03/16 12:19:00;;;;;;;;;;;;;;;;;;4960917;28;19930;-81
2023/03/16 12:21:25;;;;;;;;;;;;;;;;;;4978059;29;19915;-81
2023/03/16 12:23:51;;;;;;;;;;;;;;;;;;4940308;29;19938;-80
2023/03/16 12:26:16;;;;;;;;;;;;;;;;;;4924833;29;19915;-80
2023/03/16 12:28:42;;;;;;;;;;;;;;;;;;4907575;29;20371;-80
2023/03/16 12:31:08;;;;;;;;;;;;;;;;;;4925529;29;20381;-79
2023/03/16 12:33:33;;;;;;;;;;;;;;;;;;4939780;29;19921;-81
2023/03/16 12:35:58;;;;;;;;;;;;;;;;;;4923081;29;19924;-80
2023/03/16 12:38:24;;;;;;;;;;;;;;;;;;4936677;29;19963;-81
2023/03/16 12:40:49;;;;;;;;;;;;;;;;;;4940391;29;20346;-80
2023/03/16 12:43:15;;;;;;;;;;;;;;;;;;4940484;29;20313;-81
2023/03/16 12:45:41;;;;;;;;;;;;;;;;;;4939995;29;19973;-81
2023/03/16 12:48:06;;;;;;;;;;;;;;;;;;4906824;29;20334;-80
2023/03/16 12:50:32;;;;;;;;;;;;;;;;;;4925212;29;19914;-80
2023/03/16 12:52:57;;;;;;;;;;;;;;;;;;4889740;29;20290;-84
2023/03/16 12:55:23;;;;;;;;;;;;;;;;;;4920801;29;19915;-81
2023/03/16 12:57:48;;;;;;;;;;;;;;;;;;4920578;29;19915;-81
2023/03/16 13:00:14;;;;;;;;;;;;;;;;;;4903212;29;20358;-79
2023/03/16 13:02:39;;;;;;;;;;;;;;;;;;4936168;29;19992;-81
2023/03/16 13:05:04;;;;;;;;;;;;;;;;;;4935991;29;19937;-82
2023/03/16 13:07:30;;;;;;;;;;;;;;;;;;4936270;29;20405;-81
2023/03/16 13:09:56;;;;;;;;;;;;;;;;;;4919468;29;20268;-81
2023/03/16 13:12:21;;;;;;;;;;;;;;;;;;4919572;29;19921;-81
2023/03/16 13:14:48;;;;;;;;;;;;;;;;;;5114944;23;20311;-80
2023/03/16 13:17:14;;;;;;;;;;;;;;;;;;4942329;29;19914;-84
2023/03/16 13:19:43;;;;;;;;;;;;;;;;;;4959657;29;19919;-80
2023/03/16 13:22:08;;;;;;;;;;;;;;;;;;4943482;29;19914;-80
2023/03/16 13:24:34;;;;;;;;;;;;;;;;;;4928174;29;20278;-81
2023/03/16 13:27:00;;;;;;;;;;;;;;;;;;4940986;29;19918;-81
2023/03/16 13:29:25;;;;;;;;;;;;;;;;;;4947817;29;19925;-82
2023/03/16 13:31:51;;;;;;;;;;;;;;;;;;4964606;29;20220;-82
2023/03/16 13:34:17;;;;;;;;;;;;;;;;;;4962488;29;20255;-81
2023/03/16 13:36:42;;;;;;;;;;;;;;;;;;4962877;29;19914;-82
2023/03/16 13:39:07;;;;;;;;;;;;;;;;;;4963581;29;19915;-81
2023/03/16 13:41:33;;;;;;;;;;;;;;;;;;4928432;29;20552;-81
2023/03/16 13:43:59;;;;;;;;;;;;;;;;;;4962209;29;19914;-81
2023/03/16 13:46:24;;;;;;;;;;;;;;;;;;4963560;29;19915;-81
2023/03/16 13:48:50;;;;;;;;;;;;;;;;;;4962177;29;20298;-81
2023/03/16 13:51:15;;;;;;;;;;;;;;;;;;4945225;29;19964;-81
2023/03/16 13:53:42;;;;;;;;;;;;;;;;;;4946855;29;19981;-81
2023/03/16 13:56:07;;;;;;;;;;;;;;;;;;4943515;29;19982;-82
2023/03/16 13:58:32;;;;;;;;;;;;;;;;;;4924180;29;20013;-83
2023/03/16 14:00:58;;;;;;;;;;;;;;;;;;4957719;29;19922;-83
2023/03/16 14:03:23;;;;;;;;;;;;;;;;;;4944695;29;19914;-83
2023/03/16 14:05:49;;;;;;;;;;;;;;;;;;4932982;29;19918;-82
2023/03/16 14:08:14;;;;;;;;;;;;;;;;;;4951721;29;19918;-82
2023/03/16 14:10:40;;;;;;;;;;;;;;;;;;4950365;28;19973;-81
2023/03/16 14:13:05;;;;;;;;;;;;;;;;;;4920335;29;19917;-82
2023/03/16 14:15:30;;;;;;;;;;;;;;;;;;4921860;29;19961;-82
2023/03/16 14:17:56;;;;;;;;;;;;;;;;;;4938072;29;19915;-82
2023/03/16 14:20:22;;;;;;;;;;;;;;;;;;4956282;29;19914;-82
2023/03/16 14:22:47;;;;;;;;;;;;;;;;;;4934108;29;20286;-83
2023/03/16 14:25:13;;;;;;;;;;;;;;;;;;4968497;29;19914;-83
2023/03/16 14:27:39;;;;;;;;;;;;;;;;;;4962320;29;19929;-83
2023/03/16 14:30:04;;;;;;;;;;;;;;;;;;4925516;29;20354;-86
2023/03/16 14:32:30;;;;;;;;;;;;;;;;;;4940410;29;19917;-85
2023/03/16 14:34:56;;;;;;;;;;;;;;;;;;4940346;29;20286;-82
2023/03/16 14:37:21;;;;;;;;;;;;;;;;;;4910053;29;19933;-85
2023/03/16 14:39:47;;;;;;;;;;;;;;;;;;4941396;29;20357;-83
2023/03/16 14:42:13;;;;;;;;;;;;;;;;;;4940444;29;19914;-84
2023/03/16 14:44:39;;;;;;;;;;;;;;;;;;4924916;29;19919;-82
2023/03/16 14:47:05;;;;;;;;;;;;;;;;;;4940641;29;19926;-86
2023/03/16 14:49:32;;;;;;;;;;;;;;;;;;4942249;29;20366;-86
2023/03/16 14:51:57;;;;;;;;;;;;;;;;;;4925355;29;19915;-85
2023/03/16 14:54:23;;;;;;;;;;;;;;;;;;4920755;29;19915;-83
2023/03/16 14:56:48;;;;;;;;;;;;;;;;;;4936712;29;19930;-90
2023/03/16 14:59:13;;;;;;;;;;;;;;;;;;4923229;29;19915;-90
2023/03/16 15:01:39;;;;;;;;;;;;;;;;;;4937838;29;19922;-83
2023/03/16 15:04:06;;;;;;;;;;;;;;;;;;4936464;29;19915;-83
2023/03/16 15:06:31;;;;;;;;;;;;;;;;;;4937277;29;20009;-84
2023/03/16 15:08:57;;;;;;;;;;;;;;;;;;4936610;29;20343;-83
2023/03/16 15:11:23;;;;;;;;;;;;;;;;;;4937914;29;19925;-85
2023/03/16 15:16:14;;;;;;;;;;;;;;;;;;4936451;29;20008;-83
2023/03/16 15:18:39;;;;;;;;;;;;;;;;;;4921269;29;19919;-83
2023/03/16 15:21:06;;;;;;;;;;;;;;;;;;4920530;29;19965;-84
2023/03/16 15:23:32;;;;;;;;;;;;;;;;;;4936149;29;20282;-82
2023/03/16 15:25:59;;;;;;;;;;;;;;;;;;4938009;29;19911;-85
2023/03/16 15:28:24;;;;;;;;;;;;;;;;;;4920708;29;20451;-83
2023/03/16 15:30:49;;;;;;;;;;;;;;;;;;4938321;29;20013;-85
2023/03/16 15:33:16;;;;;;;;;;;;;;;;;;4957986;29;19958;-86
2023/03/16 15:35:41;;;;;;;;;;;;;;;;;;4957455;29;19914;-86
2023/03/16 15:38:08;;;;;;;;;;;;;;;;;;4954940;29;19922;-84
2023/03/16 15:40:33;;;;;;;;;;;;;;;;;;4949601;29;20335;-82
2023/03/16 15:42:58;;;;;;;;;;;;;;;;;;4961297;29;19911;-80
2023/03/16 15:45:24;;;;;;;;;;;;;;;;;;4926271;29;20303;-80
2023/03/16 15:47:49;;;;;;;;;;;;;;;;;;4955512;29;19925;-80
2023/03/16 15:50:15;;;;;;;;;;;;;;;;;;4961720;29;19915;-80
2023/03/16 15:52:41;;;;;;;;;;;;;;;;;;4944065;29;20325;-80
2023/03/16 15:55:07;;;;;;;;;;;;;;;;;;4974731;29;19969;-80
2023/03/16 15:57:32;;;;;;;;;;;;;;;;;;4965025;29;19907;-81
2023/03/16 15:59:58;;;;;;;;;;;;;;;;;;4942746;29;19975;-80
2023/03/16 16:02:23;;;;;;;;;;;;;;;;;;4944340;29;19970;-81
2023/03/16 16:04:48;;;;;;;;;;;;;;;;;;4928690;29;20337;-80
2023/03/16 16:07:14;;;;;;;;;;;;;;;;;;4956688;29;19954;-80
2023/03/16 16:09:40;;;;;;;;;;;;;;;;;;4928472;29;19943;-79
2023/03/16 16:12:06;;;;;;;;;;;;;;;;;;4942715;29;20282;-80
2023/03/16 16:14:33;;;;;;;;;;;;;;;;;;4943388;29;19919;-79
2023/03/16 16:16:58;;;;;;;;;;;;;;;;;;4943036;29;19922;-81
2023/03/16 16:19:24;;;;;;;;;;;;;;;;;;4941998;29;19914;-79
2023/03/16 16:21:52;;;;;;;;;;;;;;;;;;4924611;29;19949;-80
2023/03/16 16:24:18;;;;;;;;;;;;;;;;;;4939258;29;19915;-79
2023/03/16 16:26:48;;;;;;;;;;;;;;;;;;4920523;29;20394;-79
2023/03/16 16:29:13;;;;;;;;;;;;;;;;;;4938095;29;19915;-79
2023/03/16 16:31:40;;;;;;;;;;;;;;;;;;4938952;29;20398;-79
2023/03/16 16:34:06;;;;;;;;;;;;;;;;;;4923808;28;19918;-80
2023/03/16 16:36:31;;;;;;;;;;;;;;;;;;4956644;29;19921;-79
2023/03/16 16:38:59;;;;;;;;;;;;;;;;;;4957483;29;20013;-79
2023/03/16 16:41:24;;;;;;;;;;;;;;;;;;4925680;28;19953;-80
2023/03/16 16:43:49;;;;;;;;;;;;;;;;;;4941273;29;19941;-80
2023/03/16 16:46:15;;;;;;;;;;;;;;;;;;4941325;29;19915;-80
2023/03/16 16:48:40;;;;;;;;;;;;;;;;;;4940189;29;19926;-80
2023/03/16 16:51:06;;;;;;;;;;;;;;;;;;4952729;29;20302;-80
2023/03/16 16:53:31;;;;;;;;;;;;;;;;;;4956268;29;19950;-80
2023/03/16 16:55:57;;;;;;;;;;;;;;;;;;4941296;29;19958;-81
2023/03/16 16:58:22;;;;;;;;;;;;;;;;;;4943406;29;19954;-82
2023/03/16 17:00:48;;;;;;;;;;;;;;;;;;4943657;29;19946;-81
2023/03/16 17:03:13;;;;;;;;;;;;;;;;;;4945287;29;19920;-82
2023/03/16 17:05:39;;;;;;;;;;;;;;;;;;4944341;29;19922;-82
2023/03/16 17:08:05;;;;;;;;;;;;;;;;;;4946672;29;19977;-82
2023/03/16 17:10:32;;;;;;;;;;;;;;;;;;4943390;29;19914;-81
2023/03/16 17:12:58;;;;;;;;;;;;;;;;;;4948125;29;20372;-82
2023/03/16 17:15:23;;;;;;;;;;;;;;;;;;4931186;29;19978;-82
2023/03/16 17:17:49;;;;;;;;;;;;;;;;;;4966112;29;19915;-82
2023/03/16 17:20:14;;;;;;;;;;;;;;;;;;4964114;29;20429;-82
2023/03/16 17:22:40;;;;;;;;;;;;;;;;;;4966958;29;19943;-81
2023/03/16 17:25:06;;;;;;;;;;;;;;;;;;4947044;29;19921;-79
2023/03/16 17:27:32;;;;;;;;;;;;;;;;;;4959202;29;19982;-79
2023/03/16 17:29:57;;;;;;;;;;;;;;;;;;4961253;29;20397;-80
2023/03/16 17:32:23;;;;;;;;;;;;;;;;;;4961647;29;19957;-80
2023/03/16 17:34:48;;;;;;;;;;;;;;;;;;4959875;29;20006;-81
2023/03/16 17:37:14;;;;;;;;;;;;;;;;;;4960384;29;19970;-80
2023/03/16 17:39:40;;;;;;;;;;;;;;;;;;4942735;29;19925;-80
2023/03/16 17:42:05;;;;;;;;;;;;;;;;;;4942026;29;19915;-81
2023/03/16 17:44:31;;;;;;;;;;;;;;;;;;4962898;29;19998;-81